Time;durP1;ratioP1;P1;durP2;ratioP2;P2;SDS_P1;SDS_P2;PMS_P1;PMS_P2;Temp;Humidity;BMP_temperature;BMP_pressure;BME280_temperature;BME280_humidity;BME280_pressure;Samples;Min_cycle;Max_cycle;Signal;HPM_P1;HPM_P2
2022/02/17 00:02:08;;;;;;;0.40;0.30;;;11.10;99.90;;;;;;5051623;28;20089;-66
2022/02/17 00:04:35;;;;;;;0.43;0.10;;;11.20;99.90;;;;;;5051598;28;20124;-65
2022/02/17 00:07:02;;;;;;;0.20;0.20;;;11.20;99.90;;;;;;5051334;28;20136;-66
2022/02/17 00:09:29;;;;;;;0.22;0.10;;;11.40;99.90;;;;;;5051677;28;20095;-66
2022/02/17 00:11:55;;;;;;;0.17;0.15;;;11.20;99.90;;;;;;5051540;28;20049;-66
2022/02/17 00:14:23;;;;;;;0.82;0.40;;;11.40;99.90;;;;;;5050979;28;20049;-65
2022/02/17 00:16:52;;;;;;;0.22;0.20;;;11.30;99.90;;;;;;5051263;28;20060;-65
2022/02/17 00:19:19;;;;;;;0.38;0.25;;;11.30;99.90;;;;;;5051453;28;20084;-65
2022/02/17 00:21:47;;;;;;;0.40;0.32;;;11.40;99.90;;;;;;5051574;28;20080;-66
2022/02/17 00:24:15;;;;;;;4.15;0.63;;;11.30;99.90;;;;;;5051741;28;20278;-66
2022/02/17 00:26:42;;;;;;;1.55;0.30;;;11.40;99.90;;;;;;5051810;28;20053;-66
2022/02/17 00:29:09;;;;;;;1.67;0.45;;;11.40;99.90;;;;;;5051137;28;20147;-65
2022/02/17 00:31:36;;;;;;;0.60;0.28;;;11.50;99.90;;;;;;5051492;28;20132;-66
2022/02/17 00:34:04;;;;;;;0.20;0.20;;;11.30;99.90;;;;;;5051431;28;20045;-66
2022/02/17 00:36:32;;;;;;;0.35;0.20;;;11.60;99.90;;;;;;5051067;28;20140;-66
2022/02/17 00:38:59;;;;;;;1.27;0.20;;;11.40;99.90;;;;;;5051196;28;20507;-66
2022/02/17 00:41:26;;;;;;;0.13;0.10;;;11.40;99.90;;;;;;5051402;28;20131;-65
2022/02/17 00:43:53;;;;;;;1.27;0.17;;;11.30;99.90;;;;;;5051174;28;20061;-64
2022/02/17 00:46:20;;;;;;;0.63;0.20;;;11.50;99.90;;;;;;5051120;28;20049;-65
2022/02/17 00:48:47;;;;;;;0.25;0.17;;;11.40;99.90;;;;;;5051197;28;20052;-65
2022/02/17 00:51:15;;;;;;;0.30;0.10;;;11.50;99.90;;;;;;5053567;28;20049;-66
2022/02/17 00:53:42;;;;;;;0.75;0.20;;;11.50;99.90;;;;;;5054915;28;20073;-65
2022/02/17 00:56:09;;;;;;;0.13;0.10;;;11.20;99.90;;;;;;5055694;28;20056;-65
2022/02/17 00:58:36;;;;;;;0.45;0.10;;;11.70;99.90;;;;;;5052726;28;20135;-65
2022/02/17 01:01:03;;;;;;;0.13;0.13;;;11.50;99.90;;;;;;5051119;28;20143;-65
2022/02/17 01:03:30;;;;;;;0.05;0.05;;;11.50;99.90;;;;;;5051129;28;20140;-66
2022/02/17 01:05:57;;;;;;;0.17;0.17;;;11.40;99.90;;;;;;5050716;28;20115;-65
2022/02/17 01:08:26;;;;;;;0.77;0.20;;;11.60;99.90;;;;;;5050934;28;20052;-65
2022/02/17 01:10:53;;;;;;;0.10;0.10;;;11.40;99.90;;;;;;5050800;28;20199;-66
2022/02/17 01:13:20;;;;;;;0.30;0.20;;;11.30;99.90;;;;;;5051106;28;20102;-66
2022/02/17 01:15:47;;;;;;;0.20;0.05;;;11.50;99.90;;;;;;5050374;28;20080;-65
2022/02/17 01:18:14;;;;;;;1.50;0.28;;;11.50;99.90;;;;;;5051152;28;20132;-66
2022/02/17 01:20:41;;;;;;;0.45;0.10;;;11.70;99.90;;;;;;5050874;28;20569;-66
2022/02/17 01:23:09;;;;;;;0.20;0.20;;;11.70;99.90;;;;;;5051008;28;20045;-66
2022/02/17 01:25:37;;;;;;;0.22;0.20;;;11.70;99.90;;;;;;5050379;28;20141;-66
2022/02/17 01:28:04;;;;;;;1.65;0.10;;;11.80;99.90;;;;;;5053653;28;20128;-66
2022/02/17 01:30:31;;;;;;;1.38;0.13;;;11.70;99.90;;;;;;5054633;28;20059;-66
2022/02/17 01:32:58;;;;;;;0.63;0.20;;;11.80;99.90;;;;;;5054484;28;20135;-66
2022/02/17 01:35:25;;;;;;;0.28;0.28;;;11.60;99.90;;;;;;5054084;28;20139;-66
2022/02/17 01:37:52;;;;;;;0.32;0.10;;;11.90;99.90;;;;;;5054170;28;20539;-66
2022/02/17 01:40:19;;;;;;;0.10;0.10;;;11.90;99.90;;;;;;5054155;28;20063;-66
2022/02/17 01:42:47;;;;;;;0.70;0.20;;;12.10;99.90;;;;;;5054179;28;20136;-65
2022/02/17 01:45:15;;;;;;;0.43;0.20;;;11.90;99.90;;;;;;5053964;28;20139;-65
2022/02/17 01:47:44;;;;;;;0.10;0.10;;;11.90;99.90;;;;;;5054031;28;20045;-65
2022/02/17 01:50:11;;;;;;;1.08;0.20;;;12.10;99.90;;;;;;5054368;28;20409;-65
2022/02/17 01:52:38;;;;;;;0.00;0.00;;;12.00;99.90;;;;;;5054060;28;20075;-65
2022/02/17 01:55:07;;;;;;;0.55;0.20;;;12.00;99.90;;;;;;5053791;28;20140;-65
2022/02/17 01:57:35;;;;;;;0.17;0.10;;;12.10;99.90;;;;;;5053813;28;20132;-65
2022/02/17 02:00:04;;;;;;;0.30;0.10;;;12.00;99.90;;;;;;5053741;28;20489;-65
2022/02/17 02:02:32;;;;;;;0.70;0.10;;;12.20;99.90;;;;;;5053837;28;20053;-67
2022/02/17 02:04:59;;;;;;;0.32;0.10;;;12.10;99.90;;;;;;5053463;28;20475;-65
2022/02/17 02:07:26;;;;;;;1.52;0.20;;;12.20;99.90;;;;;;5054052;28;20131;-66
2022/02/17 02:09:54;;;;;;;0.45;0.10;;;12.20;99.90;;;;;;5053751;28;20052;-65
2022/02/17 02:12:21;;;;;;;0.20;0.20;;;12.20;99.90;;;;;;5053599;28;20049;-65
2022/02/17 02:14:53;;;;;;;0.20;0.20;;;12.30;99.90;;;;;;5053559;28;20140;-65
2022/02/17 02:17:23;;;;;;;1.40;0.15;;;12.40;99.90;;;;;;5053342;28;20060;-66
2022/02/17 02:19:50;;;;;;;0.10;0.10;;;12.50;99.90;;;;;;5053367;28;20568;-65
2022/02/17 02:22:19;;;;;;;0.15;0.15;;;12.50;99.90;;;;;;5053700;28;20067;-65
2022/02/17 02:24:46;;;;;;;0.10;0.10;;;12.50;99.90;;;;;;5053221;28;20501;-65
2022/02/17 02:27:14;;;;;;;0.10;0.10;;;12.50;99.90;;;;;;5053352;28;20098;-66
2022/02/17 02:29:41;;;;;;;0.43;0.20;;;12.40;99.90;;;;;;5053541;28;20056;-65
2022/02/17 02:32:09;;;;;;;1.27;0.20;;;12.40;99.90;;;;;;5053139;28;20128;-66
2022/02/17 02:34:37;;;;;;;0.10;0.10;;;12.30;99.90;;;;;;5053461;28;20088;-66
2022/02/17 02:37:05;;;;;;;0.30;0.20;;;12.30;99.90;;;;;;5053039;28;20049;-65
2022/02/17 02:39:34;;;;;;;0.13;0.10;;;12.20;99.90;;;;;;5052973;28;20136;-67
2022/02/17 02:42:02;;;;;;;0.25;0.10;;;12.10;99.90;;;;;;5053036;28;20076;-65
2022/02/17 02:44:29;;;;;;;0.10;0.10;;;12.30;99.90;;;;;;5052832;28;20127;-66
2022/02/17 02:46:56;;;;;;;0.10;0.10;;;12.10;99.90;;;;;;5052746;28;20053;-64
2022/02/17 02:49:23;;;;;;;0.10;0.10;;;11.90;99.90;;;;;;5053152;28;20136;-66
2022/02/17 02:51:50;;;;;;;0.10;0.10;;;11.80;99.90;;;;;;5052977;28;20141;-65
2022/02/17 02:54:17;;;;;;;1.63;0.10;;;11.70;99.90;;;;;;5053065;28;20139;-65
2022/02/17 02:56:46;;;;;;;0.15;0.15;;;11.70;99.90;;;;;;5052575;28;20048;-65
2022/02/17 02:59:12;;;;;;;0.17;0.10;;;11.80;99.90;;;;;;5052648;28;20129;-65
2022/02/17 03:01:39;;;;;;;0.28;0.05;;;11.70;99.90;;;;;;5052757;28;20504;-65
2022/02/17 03:04:06;;;;;;;1.70;0.38;;;11.80;99.90;;;;;;5052652;28;20135;-66
2022/02/17 03:06:33;;;;;;;0.00;0.00;;;11.80;99.90;;;;;;5052565;28;20589;-66
2022/02/17 03:09:00;;;;;;;0.20;0.20;;;11.90;99.90;;;;;;5052590;28;20141;-66
2022/02/17 03:11:27;;;;;;;0.10;0.10;;;11.90;99.90;;;;;;5052854;28;20056;-65
2022/02/17 03:13:56;;;;;;;0.30;0.20;;;11.80;99.90;;;;;;5052278;28;20045;-65
2022/02/17 03:16:23;;;;;;;0.30;0.20;;;11.80;99.90;;;;;;5052200;28;20420;-66
2022/02/17 03:18:51;;;;;;;1.27;0.20;;;12.00;99.90;;;;;;5052591;28;20436;-66
2022/02/17 03:21:18;;;;;;;0.10;0.10;;;12.00;99.90;;;;;;5052382;28;20049;-66
2022/02/17 03:23:45;;;;;;;0.20;0.20;;;12.00;99.90;;;;;;5052264;28;20131;-65
2022/02/17 03:26:12;;;;;;;0.10;0.10;;;11.90;99.90;;;;;;5051869;28;20577;-66
2022/02/17 03:28:38;;;;;;;0.40;0.10;;;11.70;99.90;;;;;;5052213;28;20351;-66
2022/02/17 03:31:07;;;;;;;0.00;0.00;;;11.90;99.90;;;;;;5052222;28;20140;-68
2022/02/17 03:33:34;;;;;;;0.20;0.10;;;11.90;99.90;;;;;;5052451;28;20148;-65
2022/02/17 03:36:00;;;;;;;1.92;0.20;;;12.00;99.90;;;;;;5051801;28;20055;-65
2022/02/17 03:38:27;;;;;;;0.57;0.10;;;11.80;99.90;;;;;;5052091;28;20568;-65
2022/02/17 03:40:54;;;;;;;0.63;0.20;;;11.60;99.90;;;;;;5051800;28;20132;-66
2022/02/17 03:43:21;;;;;;;2.15;0.30;;;11.60;99.90;;;;;;5051992;28;20085;-66
2022/02/17 03:45:48;;;;;;;0.20;0.00;;;11.60;99.90;;;;;;5051662;28;20049;-66
2022/02/17 03:48:17;;;;;;;0.28;0.20;;;11.40;99.90;;;;;;5052071;28;20421;-66
2022/02/17 03:50:43;;;;;;;0.20;0.10;;;11.40;99.90;;;;;;5051770;28;20489;-66
2022/02/17 03:53:10;;;;;;;2.17;0.17;;;11.50;99.90;;;;;;5052005;28;20409;-66
2022/02/17 03:55:37;;;;;;;0.28;0.13;;;11.50;99.90;;;;;;5051655;28;20085;-66
2022/02/17 03:58:04;;;;;;;0.60;0.20;;;11.70;99.90;;;;;;5052022;28;20478;-65
2022/02/17 04:00:31;;;;;;;0.57;0.20;;;11.10;99.90;;;;;;5051674;28;20132;-65
2022/02/17 04:02:58;;;;;;;0.30;0.20;;;11.30;99.90;;;;;;5051924;28;20132;-65
2022/02/17 04:05:26;;;;;;;0.85;0.20;;;11.00;99.90;;;;;;5051430;28;20548;-68
2022/02/17 04:07:53;;;;;;;0.63;0.20;;;11.00;99.90;;;;;;5052053;28;20553;-67
2022/02/17 04:10:20;;;;;;;1.42;0.22;;;11.10;99.90;;;;;;5051593;28;20135;-65
2022/02/17 04:12:48;;;;;;;0.88;0.10;;;11.00;99.90;;;;;;5051897;28;20106;-65
2022/02/17 04:15:15;;;;;;;0.10;0.10;;;11.20;99.90;;;;;;5051279;28;20513;-65
2022/02/17 04:17:42;;;;;;;2.13;0.10;;;11.10;99.90;;;;;;5051589;28;20080;-65
2022/02/17 04:20:11;;;;;;;1.20;0.40;;;11.20;99.90;;;;;;5051830;28;20057;-66
2022/02/17 04:22:39;;;;;;;0.32;0.10;;;11.20;99.90;;;;;;5051451;28;20085;-66
2022/02/17 04:25:07;;;;;;;0.20;0.10;;;11.40;99.90;;;;;;5051497;28;20092;-66
2022/02/17 04:27:34;;;;;;;0.13;0.10;;;11.40;99.90;;;;;;5051872;28;20052;-66
2022/02/17 04:30:01;;;;;;;0.30;0.22;;;11.20;99.90;;;;;;5051480;28;20085;-66
2022/02/17 04:32:27;;;;;;;0.10;0.10;;;11.20;99.90;;;;;;5051583;28;20084;-66
2022/02/17 04:34:54;;;;;;;0.20;0.20;;;11.40;99.90;;;;;;5051316;28;20077;-66
2022/02/17 04:37:21;;;;;;;0.60;0.20;;;11.00;99.90;;;;;;5051562;28;20140;-66
2022/02/17 04:39:50;;;;;;;1.23;0.30;;;11.30;99.90;;;;;;5051304;28;20095;-66
2022/02/17 04:42:18;;;;;;;3.40;0.20;;;11.00;99.90;;;;;;5051449;28;20137;-66
2022/02/17 04:44:46;;;;;;;0.43;0.20;;;11.20;99.90;;;;;;5051361;28;20490;-66
2022/02/17 04:47:14;;;;;;;0.88;0.20;;;11.10;99.90;;;;;;5051412;28;20136;-66
2022/02/17 04:49:41;;;;;;;0.85;0.35;;;11.00;99.90;;;;;;5051465;28;20053;-66
2022/02/17 04:52:09;;;;;;;1.25;0.20;;;10.80;99.90;;;;;;5051363;28;20084;-66
2022/02/17 04:54:36;;;;;;;2.38;0.40;;;10.90;99.90;;;;;;5051193;28;20136;-66
2022/02/17 04:57:06;;;;;;;3.25;0.35;;;11.10;99.90;;;;;;5051772;28;20136;-66
2022/02/17 04:59:34;;;;;;;5.57;0.60;;;10.90;99.90;;;;;;5056298;28;20081;-66
2022/02/17 05:02:01;;;;;;;0.40;0.38;;;11.10;99.90;;;;;;5059122;28;20045;-66
2022/02/17 05:04:28;;;;;;;1.90;0.55;;;10.90;99.90;;;;;;5062496;28;20076;-66
2022/02/17 05:06:55;;;;;;;3.78;0.50;;;10.80;99.90;;;;;;5058281;28;20088;-66
2022/02/17 05:09:22;;;;;;;3.75;0.63;;;10.70;99.90;;;;;;5055192;28;20362;-66
2022/02/17 05:11:49;;;;;;;2.60;0.60;;;10.40;99.90;;;;;;5055261;28;20497;-66
2022/02/17 05:14:17;;;;;;;6.20;1.02;;;10.40;99.90;;;;;;5055037;28;20140;-66
2022/02/17 05:16:44;;;;;;;3.45;0.70;;;10.10;99.90;;;;;;5054490;28;20113;-66
2022/02/17 05:19:11;;;;;;;3.08;0.70;;;10.80;99.90;;;;;;5054744;28;20049;-66
2022/02/17 05:21:38;;;;;;;2.25;0.40;;;10.40;99.90;;;;;;5054772;28;20131;-65
2022/02/17 05:24:05;;;;;;;4.35;1.40;;;10.40;99.90;;;;;;5054638;28;20060;-66
2022/02/17 05:26:32;;;;;;;5.22;0.85;;;10.40;99.90;;;;;;5054454;28;20092;-66
2022/02/17 05:28:59;;;;;;;3.10;0.80;;;10.70;99.90;;;;;;5054721;28;20053;-66
2022/02/17 05:31:29;;;;;;;10.75;1.00;;;9.90;99.90;;;;;;5054476;28;20045;-66
2022/02/17 05:33:56;;;;;;;4.90;1.10;;;10.30;99.90;;;;;;5054794;28;20495;-66
2022/02/17 05:36:23;;;;;;;7.10;1.10;;;10.30;99.90;;;;;;5054211;28;20056;-66
2022/02/17 05:38:50;;;;;;;4.70;1.10;;;10.40;99.90;;;;;;5054675;28;20219;-66
2022/02/17 05:41:17;;;;;;;5.68;1.08;;;10.60;99.90;;;;;;5054314;28;20137;-64
2022/02/17 05:43:44;;;;;;;10.02;2.28;;;10.80;99.90;;;;;;5054310;28;20131;-66
2022/02/17 05:46:11;;;;;;;7.72;1.42;;;10.90;99.90;;;;;;5053859;28;20132;-66
2022/02/17 05:48:39;;;;;;;7.07;1.70;;;11.30;99.90;;;;;;5054042;28;20580;-66
2022/02/17 05:51:06;;;;;;;7.45;1.20;;;11.00;99.90;;;;;;5054087;28;20088;-65
2022/02/17 05:53:33;;;;;;;7.75;1.58;;;10.90;99.90;;;;;;5054024;28;20136;-66
2022/02/17 05:56:00;;;;;;;5.07;1.20;;;10.70;99.90;;;;;;5053954;28;20140;-66
2022/02/17 05:58:27;;;;;;;7.40;1.40;;;11.00;99.90;;;;;;5053938;28;20136;-66
2022/02/17 06:00:53;;;;;;;10.43;1.80;;;11.00;99.90;;;;;;5054342;28;20210;-66
2022/02/17 06:03:20;;;;;;;9.75;2.42;;;11.00;99.90;;;;;;5054073;28;20131;-66
2022/02/17 06:05:49;;;;;;;10.80;1.75;;;11.00;99.90;;;;;;5053554;28;20572;-66
2022/02/17 06:08:15;;;;;;;6.32;1.10;;;11.00;99.90;;;;;;5054079;28;20581;-66
2022/02/17 06:10:43;;;;;;;11.95;2.08;;;11.20;99.90;;;;;;5053859;28;20049;-66
2022/02/17 06:13:10;;;;;;;7.18;1.70;;;11.00;99.90;;;;;;5053294;28;20049;-65
2022/02/17 06:15:37;;;;;;;5.57;1.42;;;11.00;99.90;;;;;;5053458;28;20132;-66
2022/02/17 06:18:04;;;;;;;10.57;1.48;;;10.90;99.90;;;;;;5053896;28;20049;-65
2022/02/17 06:20:32;;;;;;;8.50;1.90;;;11.00;99.90;;;;;;5053490;28;20128;-67
2022/02/17 06:23:01;;;;;;;8.98;1.70;;;10.90;99.90;;;;;;5053532;28;20084;-67
2022/02/17 06:25:28;;;;;;;13.10;2.17;;;10.90;99.90;;;;;;5053888;28;20450;-67
2022/02/17 06:27:55;;;;;;;9.93;1.75;;;10.90;99.90;;;;;;5053580;28;20064;-67
2022/02/17 06:30:23;;;;;;;8.70;1.95;;;10.80;99.90;;;;;;5053485;28;20519;-67
2022/02/17 06:32:52;;;;;;;13.68;2.17;;;10.80;99.90;;;;;;5053442;28;20493;-66
2022/02/17 06:35:21;;;;;;;18.58;2.65;;;10.80;99.90;;;;;;5053007;28;20127;-66
2022/02/17 06:37:49;;;;;;;11.68;1.90;;;10.80;99.90;;;;;;5053474;28;20133;-67
2022/02/17 06:40:18;;;;;;;11.05;2.03;;;10.80;99.90;;;;;;5053095;28;20051;-66
2022/02/17 06:42:45;;;;;;;13.45;2.78;;;10.80;99.90;;;;;;5053158;28;20358;-66
2022/02/17 06:45:13;;;;;;;12.38;2.05;;;10.80;99.90;;;;;;5052962;28;20464;-66
2022/02/17 06:47:40;;;;;;;15.68;2.03;;;10.90;99.90;;;;;;5053080;28;20131;-66
2022/02/17 06:50:09;;;;;;;13.88;1.90;;;10.60;99.90;;;;;;5052880;28;20561;-66
2022/02/17 06:52:36;;;;;;;12.43;2.88;;;10.50;99.90;;;;;;5053253;28;20106;-66
2022/02/17 06:55:05;;;;;;;8.50;1.58;;;10.80;99.90;;;;;;5052808;28;20045;-66
2022/02/17 06:57:33;;;;;;;11.95;1.85;;;10.90;99.90;;;;;;5053412;28;20081;-66
2022/02/17 07:00:03;;;;;;;11.82;2.33;;;10.90;99.90;;;;;;5053137;28;20454;-67
2022/02/17 07:02:31;;;;;;;10.05;1.67;;;10.90;99.90;;;;;;5052610;28;20045;-67
2022/02/17 07:04:59;;;;;;;14.00;2.35;;;10.90;99.90;;;;;;5052203;28;20110;-67
2022/02/17 07:07:26;;;;;;;8.35;1.70;;;11.00;99.90;;;;;;5052641;28;20064;-67
2022/02/17 07:09:52;;;;;;;11.43;2.28;;;10.80;99.90;;;;;;5052600;28;20131;-67
2022/02/17 07:12:19;;;;;;;11.70;2.08;;;11.00;99.90;;;;;;5052651;28;20139;-67
2022/02/17 07:14:51;;;;;;;7.35;1.80;;;11.00;99.90;;;;;;5052237;28;20523;-68
2022/02/17 07:17:20;;;;;;;10.27;2.22;;;11.10;99.90;;;;;;5052830;28;20049;-67
2022/02/17 07:19:47;;;;;;;10.95;1.83;;;11.00;99.90;;;;;;5052269;28;20507;-68
2022/02/17 07:22:14;;;;;;;9.02;1.83;;;10.90;99.90;;;;;;5052560;28;20049;-68
2022/02/17 07:24:42;;;;;;;11.32;2.05;;;11.00;99.90;;;;;;5050145;28;20077;-67
2022/02/17 07:27:09;;;;;;;14.02;2.25;;;11.00;99.90;;;;;;5052348;28;20138;-69
2022/02/17 07:29:36;;;;;;;10.68;2.13;;;11.10;99.90;;;;;;5052339;28;20447;-68
2022/02/17 07:32:08;;;;;;;12.38;2.20;;;11.00;99.90;;;;;;5052499;28;20123;-67
2022/02/17 07:34:35;;;;;;;10.63;2.22;;;10.90;99.90;;;;;;5052146;28;20072;-67
2022/02/17 07:37:02;;;;;;;13.75;2.13;;;10.90;99.90;;;;;;5052213;28;20049;-68
2022/02/17 07:39:29;;;;;;;10.82;2.65;;;10.90;99.90;;;;;;5052255;28;20080;-67
2022/02/17 07:41:56;;;;;;;17.83;2.88;;;10.80;99.90;;;;;;5052139;28;20136;-68
2022/02/17 07:44:25;;;;;;;15.07;2.72;;;10.80;99.90;;;;;;5051983;28;20135;-67
2022/02/17 07:46:52;;;;;;;17.00;2.40;;;10.90;99.90;;;;;;5051897;28;20110;-67
2022/02/17 07:49:20;;;;;;;13.55;2.30;;;11.00;99.90;;;;;;5052196;28;20132;-67
2022/02/17 07:51:47;;;;;;;9.10;1.98;;;11.00;99.90;;;;;;5051992;28;20059;-68
2022/02/17 07:54:14;;;;;;;12.77;2.08;;;11.00;99.90;;;;;;5051987;28;20528;-67
2022/02/17 07:56:41;;;;;;;10.43;1.92;;;10.90;99.90;;;;;;5051718;28;20147;-68
2022/02/17 07:59:08;;;;;;;14.75;2.97;;;10.80;99.90;;;;;;5051781;28;20182;-68
2022/02/17 08:01:35;;;;;;;16.08;3.17;;;10.80;99.90;;;;;;5051538;28;20136;-67
2022/02/17 08:04:02;;;;;;;15.13;3.30;;;10.70;99.90;;;;;;5051755;28;20052;-68
2022/02/17 08:06:30;;;;;;;12.27;2.88;;;10.70;99.90;;;;;;5051956;28;20063;-67
2022/02/17 08:08:57;;;;;;;14.02;2.40;;;10.60;99.90;;;;;;5051874;28;20056;-67
2022/02/17 08:11:24;;;;;;;16.83;3.38;;;10.70;99.90;;;;;;5051876;28;20517;-67
2022/02/17 08:13:53;;;;;;;13.93;2.75;;;10.60;99.90;;;;;;5051356;28;20160;-67
2022/02/17 08:16:20;;;;;;;19.63;3.60;;;10.60;99.90;;;;;;5051452;28;20135;-67
2022/02/17 08:18:47;;;;;;;15.60;2.75;;;10.80;99.90;;;;;;5051694;28;20132;-67
2022/02/17 08:21:14;;;;;;;13.52;2.30;;;11.00;99.90;;;;;;5051284;28;20049;-68
2022/02/17 08:23:42;;;;;;;15.38;3.17;;;11.00;99.90;;;;;;5051453;28;20041;-67
2022/02/17 08:26:09;;;;;;;20.58;3.47;;;11.10;99.90;;;;;;5051543;28;20103;-67
2022/02/17 08:28:36;;;;;;;24.27;3.30;;;10.90;99.90;;;;;;5051016;28;20132;-67
2022/02/17 08:31:03;;;;;;;14.98;2.65;;;10.60;99.90;;;;;;5051311;28;20127;-67
2022/02/17 08:33:30;;;;;;;10.93;2.30;;;10.70;99.90;;;;;;5051261;28;20520;-67
2022/02/17 08:35:58;;;;;;;13.35;2.50;;;10.90;99.90;;;;;;5052266;28;20132;-68
2022/02/17 08:38:31;;;;;;;12.57;2.10;;;10.80;99.90;;;;;;5055557;28;20136;-67
2022/02/17 08:41:00;;;;;;;15.02;2.67;;;10.50;99.90;;;;;;5055170;28;20567;-67
2022/02/17 08:43:27;;;;;;;17.35;2.47;;;11.50;99.90;;;;;;5055068;28;20512;-67
2022/02/17 08:45:54;;;;;;;13.00;2.60;;;12.70;99.90;;;;;;5055010;28;20055;-67
2022/02/17 08:48:21;;;;;;;13.10;2.90;;;14.10;99.90;;;;;;5055184;28;20049;-67
2022/02/17 08:50:48;;;;;;;17.02;3.35;;;13.40;99.90;;;;;;5055090;28;20102;-67
2022/02/17 08:53:15;;;;;;;16.88;3.47;;;14.00;99.90;;;;;;5055016;28;20431;-67
2022/02/17 08:55:42;;;;;;;18.48;3.30;;;13.40;99.90;;;;;;5054549;28;20053;-67
2022/02/17 08:58:10;;;;;;;14.98;2.67;;;13.80;99.90;;;;;;5054984;28;20570;-68
2022/02/17 09:00:37;;;;;;;16.65;3.05;;;11.50;99.90;;;;;;5054956;28;20131;-68
2022/02/17 09:03:06;;;;;;;16.88;3.67;;;11.40;99.90;;;;;;5054768;28;20141;-67
2022/02/17 09:05:33;;;;;;;21.73;4.53;;;10.70;99.90;;;;;;5054517;28;20049;-67
2022/02/17 09:08:00;;;;;;;17.98;2.33;;;10.30;99.90;;;;;;5054814;28;20136;-67
2022/02/17 09:10:27;;;;;;;13.98;2.47;;;11.70;99.90;;;;;;5054649;28;20079;-67
2022/02/17 09:12:54;;;;;;;13.43;2.20;;;12.70;99.90;;;;;;5055023;28;20132;-67
2022/02/17 09:15:22;;;;;;;12.48;2.50;;;14.00;99.90;;;;;;5054446;28;20084;-67
2022/02/17 09:17:49;;;;;;;21.38;3.05;;;13.30;99.90;;;;;;5054629;28;20140;-67
2022/02/17 09:20:16;;;;;;;13.00;2.30;;;15.10;99.90;;;;;;5054663;28;20072;-68
2022/02/17 09:22:43;;;;;;;16.30;2.67;;;14.50;99.90;;;;;;5054425;28;20085;-67
2022/02/17 09:25:11;;;;;;;13.60;2.72;;;15.00;99.90;;;;;;5054211;28;20128;-68
2022/02/17 09:27:38;;;;;;;8.85;2.60;;;15.40;99.90;;;;;;5054468;28;20055;-68
2022/02/17 09:30:06;;;;;;;11.75;3.10;;;15.50;99.90;;;;;;5054369;28;20560;-67
2022/02/17 09:32:35;;;;;;;14.32;2.88;;;14.30;99.90;;;;;;5054421;28;20061;-68
2022/02/17 09:35:03;;;;;;;14.35;2.58;;;14.60;99.90;;;;;;5054060;28;20512;-67
2022/02/17 09:37:29;;;;;;;15.90;2.85;;;15.10;99.90;;;;;;5054184;28;20052;-68
2022/02/17 09:39:56;;;;;;;12.38;3.40;;;15.50;99.90;;;;;;5054209;28;20516;-68
2022/02/17 09:42:23;;;;;;;9.75;2.50;;;16.70;99.90;;;;;;5054546;28;20133;-68
2022/02/17 09:44:50;;;;;;;20.23;3.83;;;14.30;99.90;;;;;;5053757;28;20124;-67
2022/02/17 09:47:18;;;;;;;17.40;3.17;;;12.70;99.90;;;;;;5053059;28;20053;-67
2022/02/17 09:49:46;;;;;;;13.40;2.92;;;11.90;99.90;;;;;;5053954;28;20128;-67
2022/02/17 09:52:16;;;;;;;22.52;4.05;;;11.80;99.90;;;;;;5054148;28;20493;-67
2022/02/17 09:54:43;;;;;;;18.15;4.65;;;12.90;99.90;;;;;;5053904;28;20079;-67
2022/02/17 09:57:10;;;;;;;15.07;3.22;;;13.20;99.90;;;;;;5054053;28;20131;-67
2022/02/17 09:59:37;;;;;;;15.35;3.10;;;14.50;99.90;;;;;;5053880;28;20063;-67
2022/02/17 10:02:06;;;;;;;15.00;2.72;;;12.50;99.90;;;;;;5053929;28;20063;-67
2022/02/17 10:04:34;;;;;;;18.88;3.08;;;13.60;99.90;;;;;;5053569;28;20053;-70
2022/02/17 10:07:06;;;;;;;17.50;3.08;;;15.50;99.90;;;;;;5053538;28;20140;-68
2022/02/17 10:09:38;;;;;;;19.95;3.92;;;13.70;99.90;;;;;;5054062;28;20103;-68
2022/02/17 10:12:06;;;;;;;10.70;3.05;;;14.10;99.90;;;;;;5053807;28;20128;-69
2022/02/17 10:14:33;;;;;;;13.18;3.70;;;15.00;99.90;;;;;;5053474;28;20140;-71
2022/02/17 10:17:03;;;;;;;17.23;3.30;;;14.40;99.90;;;;;;5053166;28;20080;-73
2022/02/17 10:19:34;;;;;;;15.63;3.42;;;14.90;99.90;;;;;;5053668;28;20084;-71
2022/02/17 10:22:05;;;;;;;16.85;3.50;;;15.20;99.90;;;;;;5053503;28;20143;-71
2022/02/17 10:24:38;;;;;;;12.30;2.80;;;12.80;99.90;;;;;;5053278;28;20470;-71
2022/02/17 10:27:07;;;;;;;14.40;3.50;;;12.80;99.90;;;;;;5053339;28;20430;-71
2022/02/17 10:29:34;;;;;;;18.25;3.53;;;11.30;99.90;;;;;;5053292;28;20052;-70
2022/02/17 10:32:07;;;;;;;16.90;4.35;;;12.00;99.90;;;;;;5053288;28;20049;-71
2022/02/17 10:34:34;;;;;;;20.50;3.85;;;12.00;99.90;;;;;;5053095;28;20048;-71
2022/02/17 10:37:03;;;;;;;14.02;3.45;;;13.70;99.90;;;;;;5053385;28;20546;-70
2022/02/17 10:39:34;;;;;;;9.18;2.40;;;17.40;99.90;;;;;;5053209;28;20421;-69
2022/02/17 10:42:05;;;;;;;11.95;2.17;;;16.10;99.90;;;;;;5052952;28;20502;-70
2022/02/17 10:44:33;;;;;;;10.95;2.67;;;19.40;99.90;;;;;;5053030;28;20095;-70
2022/02/17 10:47:11;;;;;;;13.80;3.35;;;20.10;99.90;;;;;;5052936;28;20128;-69
2022/02/17 10:49:41;;;;;;;11.77;3.25;;;21.70;99.90;;;;;;5053369;28;20123;-69
2022/02/17 10:52:09;;;;;;;12.48;2.97;;;19.40;99.90;;;;;;5052829;28;20137;-72
2022/02/17 10:54:36;;;;;;;9.90;2.88;;;20.70;99.90;;;;;;5052532;28;20088;-72
2022/02/17 10:57:04;;;;;;;12.13;3.13;;;20.00;99.90;;;;;;5052536;28;20601;-68
2022/02/17 11:02:25;;;;;;;11.38;3.05;;;16.20;99.90;;;;;;5052734;28;20148;-68
2022/02/17 11:04:53;;;;;;;14.52;3.60;;;18.00;99.90;;;;;;5052250;28;20120;-69
2022/02/17 11:07:22;;;;;;;10.23;2.92;;;14.90;99.90;;;;;;5052536;28;20053;-70
2022/02/17 11:09:50;;;;;;;16.67;3.78;;;15.00;99.90;;;;;;5052364;28;20508;-69
2022/02/17 11:12:17;;;;;;;11.00;2.83;;;14.60;99.90;;;;;;5052538;28;20072;-68
2022/02/17 11:14:47;;;;;;;11.27;2.88;;;14.20;99.90;;;;;;5052179;28;20137;-70
2022/02/17 11:17:15;;;;;;;12.82;3.67;;;17.40;99.90;;;;;;5052446;28;20061;-69
2022/02/17 11:19:42;;;;;;;10.27;3.13;;;19.80;97.60;;;;;;5052549;28;20055;-71
2022/02/17 11:22:14;;;;;;;15.60;4.07;;;20.10;96.60;;;;;;5052307;28;20139;-68
2022/02/17 11:24:50;;;;;;;12.32;3.05;;;19.80;97.30;;;;;;5052350;28;20406;-69
2022/02/17 11:27:18;;;;;;;15.88;3.42;;;21.50;99.90;;;;;;5052111;28;20045;-70
2022/02/17 11:29:46;;;;;;;12.75;3.33;;;21.50;99.90;;;;;;5052101;28;20045;-70
2022/02/17 11:32:17;;;;;;;12.13;3.75;;;22.60;98.90;;;;;;5051555;28;20084;-69
2022/02/17 11:34:46;;;;;;;12.65;3.70;;;19.60;99.30;;;;;;5046930;28;20057;-68
2022/02/17 11:37:32;;;;;;;15.45;3.55;;;20.80;99.90;;;;;;5040189;28;20081;-70
2022/02/17 11:40:02;;;;;;;10.63;3.17;;;19.50;99.70;;;;;;5032107;28;20095;-69
2022/02/17 11:42:29;;;;;;;13.40;2.88;;;15.30;99.90;;;;;;5032484;28;20053;-69
2022/02/17 11:45:10;;;;;;;16.05;3.63;;;14.80;99.90;;;;;;5034692;28;20053;-70
2022/02/17 11:48:02;;;;;;;17.73;3.88;;;13.40;98.50;;;;;;5051697;28;20500;-68
2022/02/17 11:50:37;;;;;;;15.32;3.33;;;12.70;99.40;;;;;;5043862;28;20107;-69
2022/02/17 11:53:23;;;;;;;16.58;3.78;;;12.30;99.90;;;;;;5051687;28;20140;-69
2022/02/17 11:55:52;;;;;;;19.20;4.68;;;11.80;99.90;;;;;;5034472;28;20569;-69
2022/02/17 11:58:44;;;;;;;16.15;3.10;;;11.30;99.90;;;;;;5032141;28;20486;-69
2022/02/17 12:01:42;;;;;;;16.02;1.73;;;10.50;99.90;;;;;;5032482;28;20049;-66
2022/02/17 12:04:17;;;;;;;19.00;3.33;;;8.80;99.90;;;;;;5031629;28;20128;-66
2022/02/17 12:06:46;;;;;;;17.05;3.58;;;8.20;99.90;;;;;;5031986;28;20071;-67
2022/02/17 12:09:35;;;;;;;23.83;3.72;;;8.10;99.90;;;;;;5032184;28;20046;-66
2022/02/17 12:12:23;;;;;;;20.63;3.42;;;8.20;99.90;;;;;;5031591;28;20107;-66
2022/02/17 12:14:52;;;;;;;13.88;3.03;;;8.50;99.90;;;;;;5031218;28;20045;-66
2022/02/17 12:17:27;;;;;;;14.48;2.63;;;8.60;99.90;;;;;;5031645;28;20132;-66
2022/02/17 12:20:06;;;;;;;24.05;3.55;;;8.60;99.90;;;;;;5031616;28;20049;-66
2022/02/17 12:22:34;;;;;;;18.88;3.78;;;8.90;99.90;;;;;;5030470;28;20492;-67
2022/02/17 12:25:20;;;;;;;16.70;3.45;;;9.00;99.90;;;;;;5031049;28;20132;-67
2022/02/17 12:27:50;;;;;;;10.75;2.03;;;9.40;99.90;;;;;;5031686;28;20061;-68
2022/02/17 12:30:29;;;;;;;18.15;2.60;;;9.00;99.90;;;;;;5031405;28;20087;-68
2022/02/17 12:33:14;;;;;;;12.43;2.72;;;8.70;99.90;;;;;;5031746;28;20270;-67
2022/02/17 12:35:51;;;;;;;14.30;2.42;;;8.10;99.90;;;;;;5031134;28;20096;-69
2022/02/17 12:38:22;;;;;;;13.63;2.25;;;7.80;99.90;;;;;;5031246;28;20636;-68
2022/02/17 12:40:50;;;;;;;21.65;3.65;;;7.60;99.90;;;;;;5031429;28;20057;-68
2022/02/17 12:43:32;;;;;;;20.83;2.55;;;7.60;99.90;;;;;;5031171;28;20136;-68
2022/02/17 12:45:59;;;;;;;11.20;2.25;;;7.40;99.90;;;;;;5030856;28;20103;-67
2022/02/17 12:48:29;;;;;;;13.10;2.50;;;7.00;99.90;;;;;;5031352;28;20506;-68
2022/02/17 12:50:57;;;;;;;17.83;3.90;;;6.90;99.90;;;;;;5031293;28;20512;-67
2022/02/17 12:53:24;;;;;;;11.05;2.70;;;9.70;99.90;;;;;;5031227;28;20057;-68